Station History

Weather Underground - logo

Station Historical Data
Daily Summary for March 6, 2018 Units:  English    Metric   Both
« Previous Day
Next Day »
Daily Weekly Monthly Yearly Custom
  High: Low: Average:
Temperature: 69.1 °F 36.3 °F 52.5 °F
Dew Point: 46.3 °F 34.2 °F 40.7 °F
Humidity: 95 % 30 % 69 %
Wind Speed: 5.8 mph 0.0 mph 1.2 mph
Wind Gust: 5.8 mph - -
Wind:- - WSW
Pressure: 30.20 in 30.04 in -
Precipitation: 0.00 in    
Historical Graphs
 
 
Tabular Data for March 6, 2018
Time Temperature Dew Point Pressure Wind Wind Speed Wind Gust Humidity Rainfall Rate (Hourly)
00:03 41.9 °F 39.2 °F 30.18 in Calm     90 % 0.00 in
00:09 42.0 °F 39.3 °F 30.18 in Calm     90 % 0.00 in
00:14 41.9 °F 39.2 °F 30.18 in Calm     90 % 0.00 in
00:19 42.0 °F 39.3 °F 30.18 in Calm     90 % 0.00 in
00:24 42.0 °F 39.3 °F 30.18 in Calm     90 % 0.00 in
00:29 41.8 °F 39.1 °F 30.18 in Calm     90 % 0.00 in
00:34 41.6 °F 38.6 °F 30.19 in Calm     89 % 0.00 in
00:39 41.2 °F 38.2 °F 30.19 in Calm     89 % 0.00 in
00:44 40.8 °F 37.8 °F 30.19 in Calm     89 % 0.00 in
00:49 40.8 °F 38.1 °F 30.19 in Calm     90 % 0.00 in
00:54 40.7 °F 38.0 °F 30.19 in Calm     90 % 0.00 in
00:59 40.7 °F 38.3 °F 30.20 in Calm     91 % 0.00 in
01:04 40.8 °F 38.4 °F 30.20 in Calm     91 % 0.00 in
01:09 40.9 °F 38.5 °F 30.19 in Calm     91 % 0.00 in
01:14 40.9 °F 38.5 °F 30.20 in Calm     91 % 0.00 in
01:19 40.9 °F 38.5 °F 30.20 in Calm     91 % 0.00 in
01:24 41.0 °F 38.6 °F 30.20 in Calm     91 % 0.00 in
01:29 41.0 °F 38.6 °F 30.19 in Calm     91 % 0.00 in
01:34 40.5 °F 37.8 °F 30.19 in Calm     90 % 0.00 in
01:39 40.2 °F 37.5 °F 30.19 in Calm     90 % 0.00 in
01:44 40.3 °F 38.2 °F 30.19 in North 1.2 mph   92 % 0.00 in
01:49 40.7 °F 38.6 °F 30.19 in Calm     92 % 0.00 in
01:54 41.0 °F 38.9 °F 30.19 in Calm     92 % 0.00 in
01:59 41.1 °F 38.7 °F 30.19 in Calm     91 % 0.00 in
02:04 41.1 °F 38.7 °F 30.19 in Calm     91 % 0.00 in
02:09 41.1 °F 38.7 °F 30.18 in Calm     91 % 0.00 in
02:14 41.1 °F 38.7 °F 30.18 in Calm     91 % 0.00 in
02:19 41.1 °F 38.7 °F 30.18 in Calm     91 % 0.00 in
02:24 40.7 °F 38.0 °F 30.18 in Calm     90 % 0.00 in
02:29 40.2 °F 37.5 °F 30.18 in Calm     90 % 0.00 in
02:34 39.6 °F 36.9 °F 30.18 in Calm     90 % 0.00 in
02:39 39.2 °F 36.8 °F 30.17 in Calm     91 % 0.00 in
02:44 39.2 °F 37.1 °F 30.17 in Calm     92 % 0.00 in
02:49 39.4 °F 37.3 °F 30.17 in Calm     92 % 0.00 in
02:55 39.6 °F 37.5 °F 30.17 in Calm     92 % 0.00 in
03:00 39.7 °F 37.6 °F 30.17 in Calm     92 % 0.00 in
03:05 39.6 °F 37.5 °F 30.17 in Calm     92 % 0.00 in
03:10 39.4 °F 37.0 °F 30.17 in Calm     91 % 0.00 in
03:15 39.0 °F 36.3 °F 30.16 in Calm     90 % 0.00 in
03:20 38.6 °F 36.2 °F 30.16 in Calm     91 % 0.00 in
03:25 38.3 °F 35.9 °F 30.16 in Calm     91 % 0.00 in
03:30 38.1 °F 35.7 °F 30.16 in Calm     91 % 0.00 in
03:35 37.8 °F 35.4 °F 30.16 in Calm     91 % 0.00 in
03:40 37.6 °F 35.2 °F 30.16 in Calm     91 % 0.00 in
03:45 37.4 °F 35.0 °F 30.16 in North 1.2 mph 1.2 mph 91 % 0.00 in
03:50 37.0 °F 34.6 °F 30.16 in Calm     91 % 0.00 in
03:55 36.8 °F 34.4 °F 30.16 in Calm     91 % 0.00 in
04:00 36.7 °F 34.6 °F 30.16 in Calm     92 % 0.00 in
04:05 36.5 °F 34.4 °F 30.16 in Calm     92 % 0.00 in
04:10 36.3 °F 34.2 °F 30.16 in Calm     92 % 0.00 in
04:15 36.4 °F 34.6 °F 30.16 in Calm     93 % 0.00 in
04:20 36.7 °F 34.9 °F 30.16 in Calm     93 % 0.00 in
04:25 36.9 °F 35.1 °F 30.16 in Calm     93 % 0.00 in
04:30 37.1 °F 35.3 °F 30.16 in Calm     93 % 0.00 in
04:35 37.2 °F 35.4 °F 30.16 in Calm     93 % 0.00 in
04:40 37.4 °F 35.6 °F 30.16 in Calm     93 % 0.00 in
04:45 37.3 °F 35.5 °F 30.17 in Calm     93 % 0.00 in
04:50 37.1 °F 35.3 °F 30.17 in Calm     93 % 0.00 in
04:55 36.9 °F 35.1 °F 30.17 in Calm     93 % 0.00 in
05:00 36.8 °F 35.0 °F 30.17 in Calm     93 % 0.00 in
05:05 36.5 °F 34.7 °F 30.17 in Calm     93 % 0.00 in
05:10 36.5 °F 34.7 °F 30.17 in Calm     93 % 0.00 in
05:15 36.5 °F 34.7 °F 30.17 in Calm     93 % 0.00 in
05:20 36.5 °F 34.7 °F 30.17 in Calm     93 % 0.00 in
05:25 36.4 °F 34.6 °F 30.17 in Calm     93 % 0.00 in
05:30 36.3 °F 34.5 °F 30.17 in Calm     93 % 0.00 in
05:35 36.3 °F 34.5 °F 30.17 in Calm     93 % 0.00 in
05:40 36.4 °F 34.8 °F 30.17 in Calm     94 % 0.00 in
05:45 36.4 °F 34.8 °F 30.17 in Calm     94 % 0.00 in
05:50 36.7 °F 35.1 °F 30.17 in Calm     94 % 0.00 in
05:55 37.6 °F 36.3 °F 30.17 in Calm     95 % 0.00 in
06:00 37.9 °F 36.6 °F 30.17 in Calm     95 % 0.00 in
06:05 38.1 °F 36.8 °F 30.17 in Calm     95 % 0.00 in
06:10 38.1 °F 36.5 °F 30.18 in Calm     94 % 0.00 in
06:16 38.3 °F 36.7 °F 30.18 in North 1.0 mph 1.0 mph 94 % 0.00 in
06:21 38.5 °F 36.7 °F 30.18 in North 1.2 mph   93 % 0.00 in
06:26 38.6 °F 36.8 °F 30.18 in Calm     93 % 0.00 in
06:31 38.7 °F 36.9 °F 30.18 in Calm     93 % 0.00 in
06:36 38.6 °F 36.5 °F 30.19 in Calm     92 % 0.00 in
06:41 38.2 °F 35.8 °F 30.19 in Calm     91 % 0.00 in
06:46 37.5 °F 35.1 °F 30.19 in Calm     91 % 0.00 in
06:51 37.2 °F 34.8 °F 30.19 in Calm     91 % 0.00 in
06:56 37.3 °F 35.2 °F 30.19 in Calm     92 % 0.00 in
07:01 37.3 °F 35.2 °F 30.19 in Calm     92 % 0.00 in
07:06 37.9 °F 36.1 °F 30.19 in Calm     93 % 0.00 in
07:11 38.4 °F 36.6 °F 30.19 in Calm     93 % 0.00 in
07:16 38.7 °F 36.9 °F 30.19 in Calm     93 % 0.00 in
07:21 39.2 °F 37.3 °F 30.19 in Calm     93 % 0.00 in
07:26 39.6 °F 37.7 °F 30.19 in Calm     93 % 0.00 in
07:31 40.9 °F 39.3 °F 30.19 in Calm     94 % 0.00 in
07:36 43.1 °F 41.2 °F 30.19 in Calm     93 % 0.00 in
07:41 45.0 °F 42.2 °F 30.19 in Calm     90 % 0.00 in
07:46 46.4 °F 42.7 °F 30.19 in SE 1.2 mph 1.2 mph 87 % 0.00 in
07:51 47.4 °F 42.8 °F 30.19 in Calm   0.1 mph 84 % 0.00 in
07:56 48.1 °F 43.2 °F 30.19 in South 1.2 mph   83 % 0.00 in
08:01 49.0 °F 43.7 °F 30.19 in SSE 2.3 mph 2.3 mph 82 % 0.00 in
08:06 49.4 °F 43.5 °F 30.19 in ESE 2.0 mph 2.0 mph 80 % 0.00 in
08:11 49.2 °F 42.6 °F 30.20 in ESE 3.5 mph 3.5 mph 78 % 0.00 in
08:16 49.3 °F 43.1 °F 30.20 in SE 3.5 mph 3.5 mph 79 % 0.00 in
08:21 49.7 °F 43.1 °F 30.20 in SE 2.3 mph 2.3 mph 78 % 0.00 in
08:26 50.1 °F 43.2 °F 30.20 in South 3.5 mph 3.5 mph 77 % 0.00 in
08:31 50.6 °F 43.7 °F 30.19 in SSE 4.6 mph 4.6 mph 77 % 0.00 in
08:36 50.9 °F 43.6 °F 30.19 in SE 3.5 mph 3.5 mph 76 % 0.00 in
08:41 51.2 °F 43.5 °F 30.20 in South 4.0 mph 4.0 mph 75 % 0.00 in
08:46 51.5 °F 43.8 °F 30.20 in SSE 2.3 mph 2.3 mph 75 % 0.00 in
08:51 51.9 °F 43.9 °F 30.20 in SW 2.3 mph 2.3 mph 74 % 0.00 in
08:56 52.3 °F 43.5 °F 30.20 in ESE 4.6 mph 4.6 mph 72 % 0.00 in
09:01 52.4 °F 44.0 °F 30.20 in SSE 2.3 mph 2.3 mph 73 % 0.00 in
09:06 52.8 °F 44.4 °F 30.20 in SE 3.5 mph 3.5 mph 73 % 0.00 in
09:12 53.5 °F 44.7 °F 30.20 in South 3.5 mph 3.5 mph 72 % 0.00 in
09:17 53.8 °F 45.0 °F 30.20 in South 5.0 mph 5.0 mph 72 % 0.00 in
09:22 54.1 °F 44.9 °F 30.20 in SSE 3.5 mph 3.5 mph 71 % 0.00 in
09:27 54.7 °F 45.1 °F 30.20 in SE 3.5 mph 3.5 mph 70 % 0.00 in
09:32 55.1 °F 44.3 °F 30.19 in SSE 4.6 mph 4.6 mph 67 % 0.00 in
09:37 55.6 °F 44.8 °F 30.19 in East 3.5 mph 3.5 mph 67 % 0.00 in
09:42 56.3 °F 45.1 °F 30.20 in SE 5.0 mph 5.0 mph 66 % 0.00 in
09:47 56.7 °F 44.2 °F 30.19 in SE 5.8 mph 5.8 mph 63 % 0.00 in
09:52 56.8 °F 44.7 °F 30.19 in South 5.0 mph 5.0 mph 64 % 0.00 in
09:57 57.2 °F 44.7 °F 30.19 in East 3.0 mph 3.0 mph 63 % 0.00 in
10:02 57.7 °F 43.9 °F 30.19 in NE 3.5 mph 3.5 mph 60 % 0.00 in
10:07 58.0 °F 43.7 °F 30.19 in ESE 4.6 mph 4.6 mph 59 % 0.00 in
10:12 58.3 °F 43.6 °F 30.19 in SE 3.5 mph 3.5 mph 58 % 0.00 in
10:17 58.8 °F 44.0 °F 30.19 in SSE 3.5 mph 3.5 mph 58 % 0.00 in
10:22 59.1 °F 44.3 °F 30.19 in SE 3.5 mph 3.5 mph 58 % 0.00 in
10:27 59.5 °F 44.2 °F 30.19 in SE 1.2 mph   57 % 0.00 in
10:32 60.2 °F 44.9 °F 30.19 in SSE 1.2 mph 1.2 mph 57 % 0.00 in
10:37 60.5 °F 44.2 °F 30.19 in SE 2.3 mph 2.3 mph 55 % 0.00 in
10:42 60.5 °F 44.7 °F 30.19 in SE 2.3 mph 2.3 mph 56 % 0.00 in
10:47 61.0 °F 44.7 °F 30.19 in Calm     55 % 0.00 in
10:52 61.4 °F 45.1 °F 30.19 in Calm   0.1 mph 55 % 0.00 in
10:57 61.9 °F 45.5 °F 30.19 in ESE 3.5 mph 3.5 mph 55 % 0.00 in
11:02 62.0 °F 44.2 °F 30.19 in West 1.2 mph 1.2 mph 52 % 0.00 in
11:07 62.2 °F 43.8 °F 30.18 in NE 1.2 mph 1.2 mph 51 % 0.00 in
11:12 61.6 °F 44.3 °F 30.18 in South 3.0 mph 3.0 mph 53 % 0.00 in
11:17 61.8 °F 43.5 °F 30.18 in NW 2.3 mph 2.3 mph 51 % 0.00 in
11:22 62.1 °F 44.8 °F 30.18 in NE 1.2 mph 1.2 mph 53 % 0.00 in
11:27 62.7 °F 45.3 °F 30.18 in NW 1.2 mph 1.2 mph 53 % 0.00 in
11:32 62.8 °F 44.9 °F 30.18 in NW 1.2 mph   52 % 0.00 in
11:37 63.8 °F 46.3 °F 30.17 in SE 1.2 mph   53 % 0.00 in
11:42 64.0 °F 44.4 °F 30.17 in NW 2.3 mph 2.3 mph 49 % 0.00 in
11:47 63.6 °F 44.1 °F 30.16 in West 2.0 mph 2.0 mph 49 % 0.00 in
11:52 63.4 °F 43.9 °F 30.16 in WNW 3.0 mph 3.0 mph 49 % 0.00 in
11:57 63.1 °F 43.6 °F 30.16 in WNW 1.2 mph 1.2 mph 49 % 0.00 in
12:02 63.5 °F 43.4 °F 30.15 in NW 2.3 mph 2.3 mph 48 % 0.00 in
12:07 63.6 °F 43.5 °F 30.15 in NW 2.3 mph 2.3 mph 48 % 0.00 in
12:12 63.7 °F 44.2 °F 30.14 in WNW 2.3 mph 2.3 mph 49 % 0.00 in
12:17 64.1 °F 44.5 °F 30.14 in WNW 2.3 mph 2.3 mph 49 % 0.00 in
12:22 64.2 °F 43.5 °F 30.14 in NW 2.0 mph 2.0 mph 47 % 0.00 in
12:27 64.6 °F 43.9 °F 30.14 in WNW 3.5 mph 3.5 mph 47 % 0.00 in
12:32 65.0 °F 44.8 °F 30.14 in NW 2.0 mph 2.0 mph 48 % 0.00 in
12:37 65.2 °F 44.5 °F 30.13 in West 2.3 mph 2.3 mph 47 % 0.00 in
12:42 65.0 °F 43.7 °F 30.13 in NW 3.5 mph 3.5 mph 46 % 0.00 in
12:47 65.3 °F 43.4 °F 30.12 in NW 3.5 mph 3.5 mph 45 % 0.00 in
12:52 65.3 °F 42.2 °F 30.12 in NW 1.2 mph 1.2 mph 43 % 0.00 in
12:57 65.6 °F 43.1 °F 30.12 in WSW 2.3 mph 2.3 mph 44 % 0.00 in
13:04 66.1 °F 43.5 °F 30.12 in North 3.5 mph 3.5 mph 44 % 0.00 in
13:07 66.2 °F 41.8 °F 30.12 in NW 3.5 mph 3.5 mph 41 % 0.00 in
13:13 66.1 °F 39.1 °F 30.11 in NW 3.5 mph 3.5 mph 37 % 0.00 in
13:18 66.0 °F 40.3 °F 30.11 in NNW 3.5 mph 3.5 mph 39 % 0.00 in
13:23 66.4 °F 42.0 °F 30.11 in NNE 2.3 mph 2.3 mph 41 % 0.00 in
13:28 66.9 °F 43.0 °F 30.11 in NW 4.6 mph 4.6 mph 42 % 0.00 in
13:33 66.6 °F 42.8 °F 30.10 in SE 3.5 mph 3.5 mph 42 % 0.00 in
13:36 66.7 °F 42.9 °F 30.10 in NW 3.5 mph 3.5 mph 42 % 0.00 in
13:41 67.0 °F 43.1 °F 30.09 in SW 2.3 mph 2.3 mph 42 % 0.00 in
13:46 67.2 °F 43.3 °F 30.09 in NNW 3.5 mph 3.5 mph 42 % 0.00 in
13:50 67.2 °F 44.5 °F 30.09 in NNW 3.5 mph 3.5 mph 44 % 0.00 in
13:55 67.4 °F 42.2 °F 30.08 in NW 1.2 mph 1.2 mph 40 % 0.00 in
14:00 67.4 °F 41.6 °F 30.08 in WNW 4.0 mph 4.0 mph 39 % 0.00 in
14:05 67.7 °F 40.5 °F 30.08 in NNE 3.5 mph 3.5 mph 37 % 0.00 in
14:10 68.1 °F 40.8 °F 30.08 in West 1.2 mph 1.2 mph 37 % 0.00 in
14:15 68.2 °F 40.2 °F 30.08 in WNW 3.5 mph 3.5 mph 36 % 0.00 in
14:16 68.2 °F 40.2 °F 30.08 in NW 3.5 mph 3.5 mph 36 % 0.00 in
14:21 68.4 °F 40.4 °F 30.08 in NW 1.2 mph 2.0 mph 36 % 0.00 in
14:26 68.6 °F 41.3 °F 30.07 in WNW 3.5 mph 3.5 mph 37 % 0.00 in
14:28 68.6 °F 39.8 °F 30.07 in WNW 3.5 mph 3.5 mph 35 % 0.00 in
14:33 68.6 °F 39.1 °F 30.07 in North 3.0 mph 3.0 mph 34 % 0.00 in
14:38 69.0 °F 39.4 °F 30.07 in WNW 5.8 mph 5.8 mph 34 % 0.00 in
14:43 68.8 °F 39.3 °F 30.07 in NW 3.5 mph 3.5 mph 34 % 0.00 in
14:47 68.7 °F 39.2 °F 30.07 in NW 2.0 mph 2.0 mph 34 % 0.00 in
14:48 68.8 °F 40.0 °F 30.07 in NW 2.3 mph 2.3 mph 35 % 0.00 in
14:53 69.1 °F 38.8 °F 30.07 in NW 4.0 mph 4.0 mph 33 % 0.00 in
14:58 68.9 °F 38.6 °F 30.07 in WNW 5.8 mph 5.8 mph 33 % 0.00 in
15:03 68.6 °F 38.3 °F 30.06 in NW 2.0 mph 2.0 mph 33 % 0.00 in
15:08 68.8 °F 40.7 °F 30.06 in WNW 3.5 mph 3.5 mph 36 % 0.00 in
15:13 68.8 °F 38.5 °F 30.06 in NW 3.5 mph 3.5 mph 33 % 0.00 in
15:18 68.8 °F 39.3 °F 30.06 in NNW 3.5 mph 3.5 mph 34 % 0.00 in
15:23 68.7 °F 38.4 °F 30.06 in NW 1.2 mph 2.0 mph 33 % 0.00 in
15:29 68.5 °F 38.2 °F 30.06 in NW 3.5 mph   33 % 0.00 in
15:34 68.3 °F 39.6 °F 30.06 in NW 3.5 mph 3.5 mph 35 % 0.00 in
15:39 68.2 °F 40.9 °F 30.06 in NW 3.5 mph 3.5 mph 37 % 0.00 in
15:44 68.3 °F 39.6 °F 30.06 in NW 3.5 mph 3.5 mph 35 % 0.00 in
15:49 68.3 °F 38.8 °F 30.06 in WNW 2.3 mph 2.3 mph 34 % 0.00 in
15:54 68.2 °F 37.2 °F 30.06 in NW 3.5 mph 3.5 mph 32 % 0.00 in
15:59 68.1 °F 36.3 °F 30.06 in WNW 2.3 mph 2.3 mph 31 % 0.00 in
16:04 68.0 °F 37.0 °F 30.06 in NW 3.5 mph 3.5 mph 32 % 0.00 in
16:09 67.9 °F 35.3 °F 30.05 in WNW 2.3 mph 2.3 mph 30 % 0.00 in
16:14 67.9 °F 36.1 °F 30.05 in NW 2.3 mph 2.3 mph 31 % 0.00 in
16:19 67.7 °F 35.1 °F 30.05 in NW 2.3 mph 2.3 mph 30 % 0.00 in
16:24 67.5 °F 36.6 °F 30.05 in NNE 3.5 mph 3.5 mph 32 % 0.00 in
16:29 67.4 °F 38.0 °F 30.05 in WNW 3.5 mph 3.5 mph 34 % 0.00 in
16:34 67.2 °F 37.9 °F 30.05 in NW 2.3 mph 2.3 mph 34 % 0.00 in
16:39 67.1 °F 38.5 °F 30.05 in NNW 2.3 mph 2.3 mph 35 % 0.00 in
16:44 67.2 °F 40.0 °F 30.05 in WNW 3.5 mph 3.5 mph 37 % 0.00 in
16:49 66.9 °F 38.3 °F 30.05 in NNW 1.2 mph 1.2 mph 35 % 0.00 in
16:54 66.7 °F 39.6 °F 30.06 in NW 1.2 mph 1.2 mph 37 % 0.00 in
16:59 66.5 °F 38.7 °F 30.05 in Calm     36 % 0.00 in
17:04 66.3 °F 39.2 °F 30.05 in NNW 1.2 mph 1.2 mph 37 % 0.00 in
17:09 66.2 °F 40.5 °F 30.05 in NW 3.5 mph 3.5 mph 39 % 0.00 in
17:14 65.9 °F 40.9 °F 30.05 in NW 1.2 mph 1.2 mph 40 % 0.00 in
17:19 65.7 °F 42.0 °F 30.05 in Calm     42 % 0.00 in
17:24 65.4 °F 42.3 °F 30.05 in Calm     43 % 0.00 in
17:29 65.1 °F 42.6 °F 30.05 in NW 1.2 mph 1.2 mph 44 % 0.00 in
17:34 65.0 °F 43.1 °F 30.05 in Calm     45 % 0.00 in
17:39 64.7 °F 42.9 °F 30.04 in Calm     45 % 0.00 in
17:44 64.4 °F 42.6 °F 30.04 in NW 1.2 mph 1.2 mph 45 % 0.00 in
17:49 64.0 °F 42.8 °F 30.05 in Calm     46 % 0.00 in
17:54 63.5 °F 42.9 °F 30.04 in NW 1.2 mph   47 % 0.00 in
17:59 63.0 °F 44.1 °F 30.04 in Calm     50 % 0.00 in
18:04 62.4 °F 43.0 °F 30.04 in Calm     49 % 0.00 in
18:09 61.9 °F 44.1 °F 30.04 in Calm     52 % 0.00 in
18:14 61.0 °F 44.7 °F 30.04 in Calm     55 % 0.00 in
18:19 60.1 °F 44.3 °F 30.04 in Calm     56 % 0.00 in
18:24 59.4 °F 44.6 °F 30.04 in Calm     58 % 0.00 in
18:29 58.7 °F 44.8 °F 30.04 in Calm     60 % 0.00 in
18:34 58.0 °F 44.6 °F 30.05 in Calm     61 % 0.00 in
18:39 57.5 °F 44.6 °F 30.05 in Calm     62 % 0.00 in
18:44 56.9 °F 44.0 °F 30.05 in Calm     62 % 0.00 in
18:49 56.3 °F 44.3 °F 30.05 in Calm     64 % 0.00 in
18:54 55.7 °F 44.5 °F 30.06 in Calm     66 % 0.00 in
18:59 55.0 °F 44.2 °F 30.06 in Calm     67 % 0.00 in
19:04 54.5 °F 44.9 °F 30.06 in Calm     70 % 0.00 in
19:09 54.0 °F 44.8 °F 30.07 in Calm     71 % 0.00 in
19:14 53.7 °F 44.5 °F 30.07 in Calm     71 % 0.00 in
19:19 53.6 °F 44.4 °F 30.07 in Calm     71 % 0.00 in
19:24 53.7 °F 44.1 °F 30.08 in Calm     70 % 0.00 in
19:29 53.7 °F 44.1 °F 30.08 in Calm     70 % 0.00 in
19:34 53.6 °F 44.0 °F 30.08 in Calm     70 % 0.00 in
19:39 53.6 °F 44.0 °F 30.09 in Calm     70 % 0.00 in
19:44 53.6 °F 44.0 °F 30.09 in Calm     70 % 0.00 in
19:49 53.3 °F 43.8 °F 30.09 in Calm     70 % 0.00 in
19:54 53.2 °F 43.7 °F 30.09 in Calm     70 % 0.00 in
19:59 53.4 °F 43.9 °F 30.09 in Calm     70 % 0.00 in
20:04 53.7 °F 43.8 °F 30.09 in Calm     69 % 0.00 in
20:09 54.0 °F 43.7 °F 30.09 in Calm     68 % 0.00 in
20:14 53.8 °F 43.5 °F 30.09 in Calm     68 % 0.00 in
20:19 53.4 °F 43.5 °F 30.09 in Calm     69 % 0.00 in
20:24 52.9 °F 43.4 °F 30.09 in Calm     70 % 0.00 in
20:29 52.7 °F 43.2 °F 30.09 in Calm     70 % 0.00 in
20:34 52.4 °F 42.9 °F 30.09 in Calm     70 % 0.00 in
20:39 51.9 °F 43.5 °F 30.09 in Calm     73 % 0.00 in
20:44 51.7 °F 43.7 °F 30.08 in Calm     74 % 0.00 in
20:49 51.6 °F 43.6 °F 30.08 in Calm     74 % 0.00 in
20:54 51.0 °F 43.4 °F 30.08 in Calm     75 % 0.00 in
20:59 50.5 °F 43.2 °F 30.07 in Calm     76 % 0.00 in
21:04 49.9 °F 43.3 °F 30.07 in Calm     78 % 0.00 in
21:09 49.9 °F 43.3 °F 30.06 in Calm     78 % 0.00 in
21:14 50.3 °F 43.7 °F 30.06 in Calm     78 % 0.00 in
21:19 50.4 °F 43.8 °F 30.06 in Calm     78 % 0.00 in
21:24 50.5 °F 43.2 °F 30.05 in NNE 1.2 mph   76 % 0.00 in
21:29 50.9 °F 43.3 °F 30.05 in Calm     75 % 0.00 in
21:35 50.8 °F 43.5 °F 30.05 in Calm     76 % 0.00 in
21:40 50.1 °F 43.2 °F 30.04 in Calm     77 % 0.00 in
21:45 49.7 °F 43.1 °F 30.04 in Calm     78 % 0.00 in
21:50 50.1 °F 43.2 °F 30.04 in Calm     77 % 0.00 in
21:55 50.0 °F 43.1 °F 30.04 in Calm     77 % 0.00 in
22:00 50.0 °F 43.1 °F 30.04 in NNW 1.2 mph   77 % 0.00 in
22:05 50.5 °F 43.2 °F 30.04 in Calm     76 % 0.00 in
22:10 51.2 °F 43.2 °F 30.04 in Calm     74 % 0.00 in
22:15 51.4 °F 43.0 °F 30.04 in Calm     73 % 0.00 in
22:20 51.4 °F 43.0 °F 30.04 in Calm     73 % 0.00 in
22:25 51.2 °F 42.8 °F 30.04 in NNW 1.2 mph   73 % 0.00 in
22:30 51.3 °F 42.6 °F 30.04 in Calm     72 % 0.00 in
22:35 51.5 °F 42.8 °F 30.04 in Calm     72 % 0.00 in
22:40 51.4 °F 43.0 °F 30.04 in Calm     73 % 0.00 in
22:45 50.2 °F 42.6 °F 30.04 in Calm     75 % 0.00 in
22:50 49.3 °F 42.4 °F 30.04 in Calm     77 % 0.00 in
22:55 48.6 °F 42.0 °F 30.04 in Calm     78 % 0.00 in
23:00 48.2 °F 42.3 °F 30.04 in Calm     80 % 0.00 in
23:05 47.9 °F 42.3 °F 30.04 in Calm     81 % 0.00 in
23:10 47.6 °F 42.1 °F 30.05 in Calm     81 % 0.00 in
23:15 47.3 °F 42.1 °F 30.05 in Calm     82 % 0.00 in
23:20 46.9 °F 42.0 °F 30.05 in Calm     83 % 0.00 in
23:25 46.8 °F 41.9 °F 30.06 in Calm     83 % 0.00 in
23:30 46.6 °F 41.7 °F 30.07 in Calm     83 % 0.00 in
23:35 46.3 °F 41.4 °F 30.07 in Calm     83 % 0.00 in
23:40 45.7 °F 41.1 °F 30.07 in Calm     84 % 0.00 in
23:45 45.6 °F 41.4 °F 30.07 in Calm     85 % 0.00 in
23:50 45.7 °F 41.8 °F 30.07 in Calm     86 % 0.00 in
23:55 46.0 °F 42.0 °F 30.07 in Calm     86 % 0.00 in
Park Place, Exeter, Tulare County, California, USA
Compliments of Weather Underground - 2.75 mb